createdAt,value
2018-09-17T00:02:21.419Z,99.90
2018-09-17T00:04:49.972Z,99.90
2018-09-17T00:07:18.520Z,99.90
2018-09-17T00:09:46.931Z,99.90
2018-09-17T00:12:15.489Z,99.90
2018-09-17T00:14:43.946Z,99.90
2018-09-17T00:17:12.419Z,99.90
2018-09-17T00:19:40.889Z,99.90
2018-09-17T00:22:09.371Z,99.90
2018-09-17T00:24:37.827Z,99.90
2018-09-17T00:27:06.341Z,99.90
2018-09-17T00:29:34.934Z,99.90
2018-09-17T00:32:03.443Z,99.90
2018-09-17T00:34:31.866Z,99.90
2018-09-17T00:37:00.263Z,99.90
2018-09-17T00:39:28.784Z,99.90
2018-09-17T00:41:57.285Z,99.90
2018-09-17T00:44:25.749Z,99.90
2018-09-17T00:46:54.226Z,99.90
2018-09-17T00:49:22.706Z,99.90
2018-09-17T00:51:51.258Z,99.90
2018-09-17T00:54:20.451Z,99.90
2018-09-17T00:56:48.933Z,99.90
2018-09-17T00:59:17.661Z,99.90
2018-09-17T01:01:46.161Z,99.90
2018-09-17T01:04:14.669Z,99.90
2018-09-17T01:06:43.209Z,99.90
2018-09-17T01:09:15.849Z,99.90
2018-09-17T01:11:44.303Z,99.90
2018-09-17T01:14:12.797Z,99.90
2018-09-17T01:16:41.225Z,99.90
2018-09-17T01:19:09.663Z,99.90
2018-09-17T01:21:38.187Z,99.90
2018-09-17T01:24:06.771Z,99.90
2018-09-17T01:26:35.279Z,99.90
2018-09-17T01:29:03.830Z,99.90
2018-09-17T01:31:32.276Z,99.90
2018-09-17T01:34:00.716Z,99.90
2018-09-17T01:36:29.181Z,99.90
2018-09-17T01:38:57.629Z,99.90
2018-09-17T01:41:26.489Z,99.90
2018-09-17T01:43:54.914Z,99.90
2018-09-17T01:46:23.392Z,99.90
2018-09-17T01:48:51.829Z,99.90
2018-09-17T01:51:20.719Z,99.90
2018-09-17T01:53:49.196Z,99.90
2018-09-17T01:56:17.901Z,99.90
2018-09-17T01:58:46.337Z,99.90
2018-09-17T02:01:14.862Z,99.90
2018-09-17T02:03:43.423Z,99.90
2018-09-17T02:06:12.025Z,99.90
2018-09-17T02:08:40.677Z,99.90
2018-09-17T02:11:09.073Z,99.90
2018-09-17T02:13:37.604Z,99.90
2018-09-17T02:16:06.303Z,99.90
2018-09-17T02:18:34.702Z,99.90
2018-09-17T02:21:03.253Z,99.90
2018-09-17T02:23:31.797Z,99.90
2018-09-17T02:26:00.266Z,99.90
2018-09-17T02:28:28.712Z,99.90
2018-09-17T02:30:57.117Z,99.90
2018-09-17T02:33:25.875Z,99.90
2018-09-17T02:35:54.324Z,99.90
2018-09-17T02:38:22.763Z,99.90
2018-09-17T02:40:51.290Z,99.90
2018-09-17T02:43:19.824Z,99.90
2018-09-17T02:45:48.347Z,99.90
2018-09-17T02:48:16.871Z,99.90
2018-09-17T02:50:45.373Z,99.90
2018-09-17T02:53:14.235Z,99.90
2018-09-17T02:55:42.686Z,99.90
2018-09-17T02:58:11.353Z,99.90
2018-09-17T03:00:39.838Z,99.90
2018-09-17T03:03:08.284Z,99.90
2018-09-17T03:05:36.769Z,99.90
2018-09-17T03:08:05.329Z,99.90
2018-09-17T03:10:33.794Z,99.90
2018-09-17T03:13:02.248Z,99.90
2018-09-17T03:15:42.086Z,99.90
2018-09-17T03:18:10.524Z,99.90
2018-09-17T03:20:39.042Z,99.90
2018-09-17T03:23:07.516Z,99.90
2018-09-17T03:25:36.040Z,99.90
2018-09-17T03:28:04.570Z,99.90
2018-09-17T03:30:33.014Z,99.90
2018-09-17T03:33:01.551Z,99.90
2018-09-17T03:35:29.985Z,99.90
2018-09-17T03:38:12.994Z,99.90
2018-09-17T03:40:41.420Z,99.90
2018-09-17T03:43:09.828Z,99.90
2018-09-17T03:45:38.291Z,99.90
2018-09-17T03:48:06.830Z,99.90
2018-09-17T03:50:35.260Z,99.90
2018-09-17T03:53:10.311Z,99.90
2018-09-17T03:55:38.810Z,99.90
2018-09-17T03:58:07.231Z,99.90
2018-09-17T04:00:35.737Z,99.90
2018-09-17T04:03:04.196Z,99.90
2018-09-17T04:05:32.764Z,99.90
2018-09-17T04:08:01.288Z,99.90
2018-09-17T04:10:29.884Z,99.90
2018-09-17T04:12:58.452Z,99.90
2018-09-17T04:15:27.606Z,99.90
2018-09-17T04:17:56.596Z,99.90
2018-09-17T04:20:25.334Z,99.90
2018-09-17T04:22:54.136Z,99.90
2018-09-17T04:25:22.566Z,99.90
2018-09-17T04:27:51.081Z,99.90
2018-09-17T04:30:19.544Z,99.90
2018-09-17T04:32:48.042Z,99.90
2018-09-17T04:35:16.490Z,99.90
2018-09-17T04:37:44.961Z,99.90
2018-09-17T04:40:20.288Z,99.90
2018-09-17T04:42:48.718Z,99.90
2018-09-17T04:45:17.140Z,99.90
2018-09-17T04:47:45.582Z,99.90
2018-09-17T04:50:14.018Z,99.90
2018-09-17T04:52:42.500Z,99.90
2018-09-17T04:55:10.948Z,99.90
2018-09-17T04:57:39.577Z,99.90
2018-09-17T05:00:08.256Z,99.90
2018-09-17T05:02:36.834Z,99.90
2018-09-17T05:05:06.779Z,99.90
2018-09-17T05:07:35.208Z,99.90
2018-09-17T05:10:03.668Z,99.90
2018-09-17T05:12:32.096Z,99.90
2018-09-17T05:15:01.123Z,99.90
2018-09-17T05:17:29.537Z,99.90
2018-09-17T05:19:57.981Z,99.90
2018-09-17T05:22:26.542Z,99.90
2018-09-17T05:24:55.024Z,99.90
2018-09-17T05:27:23.532Z,99.90
2018-09-17T05:29:51.954Z,99.90
2018-09-17T05:32:20.449Z,99.90
2018-09-17T05:34:49.005Z,99.90
2018-09-17T05:37:24.220Z,99.90
2018-09-17T05:39:52.673Z,99.90
2018-09-17T05:42:21.273Z,99.90
2018-09-17T05:44:49.781Z,99.90
2018-09-17T05:47:18.256Z,99.90
2018-09-17T05:49:46.765Z,99.90
2018-09-17T05:52:15.280Z,99.90
2018-09-17T05:54:43.901Z,99.90
2018-09-17T05:57:12.506Z,99.90
2018-09-17T05:59:41.080Z,99.90
2018-09-17T06:02:09.784Z,99.90
2018-09-17T06:04:38.323Z,99.90
2018-09-17T06:07:06.968Z,99.90
2018-09-17T06:09:35.403Z,99.90
2018-09-17T06:12:03.882Z,99.90
2018-09-17T06:14:32.389Z,99.90
2018-09-17T06:17:00.819Z,99.90
2018-09-17T06:19:29.341Z,99.90
2018-09-17T06:21:57.881Z,99.90
2018-09-17T06:24:26.409Z,99.90
2018-09-17T06:26:55.049Z,99.90
2018-09-17T06:29:23.759Z,99.90
2018-09-17T06:31:52.422Z,99.90
2018-09-17T06:34:20.947Z,99.90
2018-09-17T06:36:49.445Z,99.90
2018-09-17T06:39:17.895Z,99.90
2018-09-17T06:41:46.395Z,99.90
2018-09-17T06:44:15.327Z,99.90
2018-09-17T06:46:43.743Z,99.90
2018-09-17T06:49:12.158Z,99.90
2018-09-17T06:51:40.596Z,99.90
2018-09-17T06:54:09.019Z,99.90
2018-09-17T06:56:37.498Z,99.90
2018-09-17T06:59:06.039Z,99.90
2018-09-17T07:01:34.488Z,99.90
2018-09-17T07:04:03.440Z,99.90
2018-09-17T07:06:31.960Z,99.90
2018-09-17T07:09:00.568Z,99.90
2018-09-17T07:11:29.525Z,99.90
2018-09-17T07:13:58.165Z,99.90
2018-09-17T07:16:26.827Z,99.90
2018-09-17T07:18:55.293Z,99.90
2018-09-17T07:21:23.820Z,99.90
2018-09-17T07:23:52.252Z,99.90
2018-09-17T07:26:20.801Z,99.90
2018-09-17T07:28:49.255Z,99.90
2018-09-17T07:31:17.783Z,99.90
2018-09-17T07:33:46.254Z,99.90
2018-09-17T07:36:14.778Z,99.90
2018-09-17T07:38:43.210Z,99.90
2018-09-17T07:41:11.708Z,99.90
2018-09-17T07:43:40.266Z,99.90
2018-09-17T07:46:08.810Z,99.90
2018-09-17T07:48:37.367Z,99.90
2018-09-17T07:51:05.873Z,99.90
2018-09-17T07:53:34.452Z,99.90
2018-09-17T07:56:02.980Z,99.90
2018-09-17T07:58:31.434Z,99.90
2018-09-17T08:00:59.870Z,99.90
2018-09-17T08:03:28.361Z,99.90
2018-09-17T08:05:56.904Z,99.90
2018-09-17T08:08:25.437Z,99.90
2018-09-17T08:10:54.046Z,99.90
2018-09-17T08:13:22.557Z,99.90
2018-09-17T08:15:51.016Z,99.90
2018-09-17T08:18:19.527Z,99.90
2018-09-17T08:20:48.046Z,99.90
2018-09-17T08:23:16.566Z,99.90
2018-09-17T08:25:45.120Z,99.90
2018-09-17T08:28:13.810Z,99.90
2018-09-17T08:30:42.372Z,99.90
2018-09-17T08:33:10.904Z,99.90
2018-09-17T08:35:39.399Z,99.90
2018-09-17T08:38:07.859Z,99.90
2018-09-17T08:40:36.348Z,99.90
2018-09-17T08:43:04.837Z,99.90
2018-09-17T08:45:33.284Z,99.90
2018-09-17T08:48:01.818Z,99.90
2018-09-17T08:50:30.313Z,99.90
2018-09-17T08:52:58.876Z,99.90
2018-09-17T08:55:32.578Z,99.90
2018-09-17T08:58:06.418Z,99.90
2018-09-17T09:00:40.303Z,99.90
2018-09-17T09:03:14.133Z,99.90
2018-09-17T09:05:47.848Z,99.90
2018-09-17T09:08:16.383Z,99.90
2018-09-17T09:10:46.821Z,99.90
2018-09-17T09:13:24.353Z,99.90
2018-09-17T09:15:52.946Z,99.90
2018-09-17T09:18:21.553Z,99.90
2018-09-17T09:20:50.243Z,99.90
2018-09-17T09:23:18.726Z,99.90
2018-09-17T09:25:47.296Z,99.90
2018-09-17T09:28:15.766Z,99.90
2018-09-17T09:30:44.299Z,99.90
2018-09-17T09:33:12.765Z,99.90
2018-09-17T09:35:41.246Z,99.90
2018-09-17T09:38:09.788Z,99.90
2018-09-17T09:40:38.503Z,99.90
2018-09-17T09:43:07.198Z,99.90
2018-09-17T09:45:35.752Z,99.90
2018-09-17T09:48:04.178Z,99.90
2018-09-17T09:50:32.692Z,99.90
2018-09-17T09:53:01.192Z,99.90
2018-09-17T09:55:29.715Z,99.90
2018-09-17T09:57:58.197Z,99.90
2018-09-17T10:00:32.163Z,99.90
2018-09-17T10:03:02.592Z,99.90
2018-09-17T10:05:31.372Z,99.90
2018-09-17T10:08:00.302Z,99.90
2018-09-17T10:10:34.240Z,99.90
2018-09-17T10:13:08.111Z,99.90
2018-09-17T10:15:42.266Z,99.90
2018-09-17T10:18:16.134Z,99.90
2018-09-17T10:20:44.596Z,99.90
2018-09-17T10:23:13.092Z,99.90
2018-09-17T10:25:41.645Z,99.90
2018-09-17T10:28:10.116Z,99.90
2018-09-17T10:30:38.618Z,99.90
2018-09-17T10:33:07.104Z,99.90
2018-09-17T10:35:35.629Z,99.90
2018-09-17T10:38:04.262Z,99.90
2018-09-17T10:40:33.303Z,99.90
2018-09-17T10:43:01.774Z,99.90
2018-09-17T10:45:30.264Z,99.90
2018-09-17T10:47:58.738Z,99.90
2018-09-17T10:50:27.280Z,99.90
2018-09-17T10:52:55.802Z,99.90
2018-09-17T10:55:24.341Z,99.90
2018-09-17T10:57:52.889Z,99.90
2018-09-17T11:00:22.301Z,99.60
2018-09-17T11:02:50.851Z,98.70
2018-09-17T11:05:19.498Z,99.90
2018-09-17T11:07:47.972Z,99.90
2018-09-17T11:10:16.564Z,98.90
2018-09-17T11:12:45.119Z,98.50
2018-09-17T11:15:13.616Z,97.50
2018-09-17T11:17:42.102Z,97.40
2018-09-17T11:20:10.590Z,97.40
2018-09-17T11:22:39.265Z,97.40
2018-09-17T11:25:07.780Z,96.70
2018-09-17T11:27:36.285Z,95.70
2018-09-17T11:30:06.114Z,95.60
2018-09-17T11:32:34.821Z,96.40
2018-09-17T11:35:03.492Z,95.50
2018-09-17T11:37:32.698Z,96.70
2018-09-17T11:40:01.214Z,98.20
2018-09-17T11:42:29.672Z,98.90
2018-09-17T11:44:58.142Z,97.40
2018-09-17T11:47:26.566Z,95.30
2018-09-17T11:49:55.019Z,94.10
2018-09-17T11:52:23.503Z,92.80
2018-09-17T11:54:52.001Z,91.90
2018-09-17T11:57:20.455Z,90.60
2018-09-17T11:59:49.030Z,88.90
2018-09-17T12:02:22.805Z,90.50
2018-09-17T12:05:16.790Z,93.40
2018-09-17T12:07:45.495Z,95.10
2018-09-17T12:10:14.131Z,94.10
2018-09-17T12:12:42.565Z,93.70
2018-09-17T12:15:11.082Z,90.40
2018-09-17T12:17:40.033Z,92.80
2018-09-17T12:20:08.559Z,94.80
2018-09-17T12:22:37.021Z,96.50
2018-09-17T12:25:05.538Z,97.60
2018-09-17T12:27:34.073Z,97.40
2018-09-17T12:30:02.614Z,97.90
2018-09-17T12:32:31.223Z,98.20
2018-09-17T12:34:59.813Z,98.30
2018-09-17T12:37:28.309Z,98.60
2018-09-17T12:39:56.908Z,96.80
2018-09-17T12:42:25.590Z,93.10
2018-09-17T12:44:54.175Z,89.80
2018-09-17T12:47:23.014Z,82.20
2018-09-17T12:49:51.641Z,77.00
2018-09-17T12:52:20.258Z,75.30
2018-09-17T12:54:48.992Z,76.10
2018-09-17T12:57:17.492Z,74.90
2018-09-17T12:59:46.054Z,72.00
2018-09-17T13:02:14.564Z,68.60
2018-09-17T13:04:43.018Z,64.80
2018-09-17T13:07:11.648Z,70.50
2018-09-17T13:09:40.202Z,71.80
2018-09-17T13:12:08.715Z,63.80
2018-09-17T13:14:37.293Z,62.60
2018-09-17T13:17:06.005Z,68.10
2018-09-17T13:19:34.553Z,74.10
2018-09-17T13:22:03.199Z,78.70
2018-09-17T13:24:31.902Z,83.10
2018-09-17T13:27:00.662Z,87.50
2018-09-17T13:29:29.231Z,88.10
2018-09-17T13:31:57.821Z,88.80
2018-09-17T13:34:26.947Z,90.70
2018-09-17T13:36:55.739Z,91.90
2018-09-17T13:39:24.328Z,92.50
2018-09-17T13:41:52.806Z,93.50
2018-09-17T13:44:21.353Z,94.10
2018-09-17T13:46:49.862Z,94.10
2018-09-17T13:49:18.319Z,94.30
2018-09-17T13:51:46.806Z,94.90
2018-09-17T13:54:15.412Z,95.50
2018-09-17T13:56:44.069Z,95.70
2018-09-17T13:59:12.958Z,96.60
2018-09-17T14:01:41.597Z,97.50
2018-09-17T14:04:10.195Z,96.60
2018-09-17T14:06:38.765Z,96.40
2018-09-17T14:09:10.850Z,97.00
2018-09-17T14:11:40.121Z,97.60
2018-09-17T14:14:08.868Z,97.30
2018-09-17T14:16:37.677Z,96.90
2018-09-17T14:19:06.191Z,97.90
2018-09-17T14:21:34.648Z,98.60
2018-09-17T14:24:03.122Z,98.40
2018-09-17T14:26:31.882Z,98.80
2018-09-17T14:29:00.384Z,99.00
2018-09-17T14:31:34.090Z,98.90
2018-09-17T14:34:02.562Z,98.60
2018-09-17T14:36:31.053Z,98.60
2018-09-17T14:38:59.820Z,98.40
2018-09-17T14:41:28.307Z,98.00
2018-09-17T14:43:56.792Z,97.50
2018-09-17T14:46:25.526Z,96.60
2018-09-17T14:48:53.952Z,96.40
2018-09-17T14:51:22.432Z,96.60
2018-09-17T14:53:51.022Z,96.50
2018-09-17T14:56:19.597Z,96.80
2018-09-17T14:58:48.262Z,97.90
2018-09-17T15:01:16.894Z,98.40
2018-09-17T15:03:45.443Z,98.50
2018-09-17T15:06:13.957Z,98.80
2018-09-17T15:08:42.574Z,98.90
2018-09-17T15:11:11.026Z,98.90
2018-09-17T15:13:40.438Z,99.70
2018-09-17T15:16:08.964Z,99.80
2018-09-17T15:18:37.607Z,99.60
2018-09-17T15:21:06.156Z,99.70
2018-09-17T15:23:34.646Z,99.60
2018-09-17T15:26:03.113Z,99.90
2018-09-17T15:28:31.619Z,99.90
2018-09-17T15:31:00.162Z,99.90
2018-09-17T15:33:28.748Z,99.90
2018-09-17T15:35:57.242Z,99.90
2018-09-17T15:38:25.854Z,99.90
2018-09-17T15:40:54.386Z,99.90
2018-09-17T15:43:23.011Z,99.90
2018-09-17T15:45:51.649Z,99.90
2018-09-17T15:48:20.193Z,99.90
2018-09-17T15:50:48.718Z,99.90
2018-09-17T15:53:17.234Z,99.90
2018-09-17T15:55:46.031Z,99.90
2018-09-17T15:58:14.584Z,99.90
2018-09-17T16:00:43.124Z,99.90
2018-09-17T16:03:11.723Z,99.90
2018-09-17T16:05:40.178Z,99.90
2018-09-17T16:08:15.332Z,99.90
2018-09-17T16:10:43.856Z,99.90
2018-09-17T16:13:12.411Z,99.90
2018-09-17T16:15:40.879Z,99.90
2018-09-17T16:18:09.427Z,99.90
2018-09-17T16:20:37.985Z,99.90
2018-09-17T16:23:06.449Z,99.90
2018-09-17T16:25:34.949Z,99.90
2018-09-17T16:28:03.470Z,99.90
2018-09-17T16:30:32.135Z,99.90
2018-09-17T16:33:00.761Z,99.90
2018-09-17T16:35:29.317Z,99.90
2018-09-17T16:37:57.756Z,99.90
2018-09-17T16:40:26.179Z,99.90
2018-09-17T16:42:54.625Z,99.90
2018-09-17T16:45:23.090Z,99.90
2018-09-17T16:47:51.689Z,99.90
2018-09-17T16:50:20.194Z,99.90
2018-09-17T16:52:48.772Z,99.90
2018-09-17T16:55:17.248Z,99.90
2018-09-17T16:57:46.167Z,99.90
2018-09-17T17:00:14.667Z,99.90
2018-09-17T17:02:43.191Z,99.90
2018-09-17T17:05:11.818Z,99.90
2018-09-17T17:07:40.492Z,99.90
2018-09-17T17:10:09.141Z,99.90
2018-09-17T17:12:37.641Z,99.90
2018-09-17T17:15:06.256Z,99.90
2018-09-17T17:17:35.019Z,99.90
2018-09-17T17:20:03.912Z,99.90
2018-09-17T17:22:32.572Z,99.90
2018-09-17T17:25:01.170Z,99.90
2018-09-17T17:27:29.775Z,99.90
2018-09-17T17:29:58.937Z,99.90
2018-09-17T17:32:27.639Z,99.90
2018-09-17T17:34:56.174Z,99.90
2018-09-17T17:37:24.786Z,99.90
2018-09-17T17:39:53.433Z,99.90
2018-09-17T17:42:21.875Z,99.90
2018-09-17T17:44:50.580Z,99.90
2018-09-17T17:47:19.305Z,99.90
2018-09-17T17:49:47.988Z,99.90
2018-09-17T17:52:17.013Z,99.90
2018-09-17T17:54:46.154Z,99.90
2018-09-17T17:57:14.825Z,99.90
2018-09-17T17:59:43.488Z,99.90
2018-09-17T18:02:12.239Z,99.90
2018-09-17T18:04:40.856Z,99.90
2018-09-17T18:07:10.137Z,99.90
2018-09-17T18:09:39.054Z,99.90
2018-09-17T18:12:08.135Z,99.90
2018-09-17T18:14:37.341Z,99.90
2018-09-17T18:17:06.674Z,99.90
2018-09-17T18:19:35.325Z,99.90
2018-09-17T18:22:03.980Z,99.90
2018-09-17T18:24:32.617Z,99.90
2018-09-17T18:27:01.300Z,99.90
2018-09-17T18:29:29.806Z,99.90
2018-09-17T18:31:58.373Z,99.90
2018-09-17T18:34:27.573Z,99.90
2018-09-17T18:36:56.579Z,99.90
2018-09-17T18:39:25.935Z,99.90
2018-09-17T18:41:54.604Z,99.90
2018-09-17T18:44:23.388Z,99.90
2018-09-17T18:46:52.100Z,99.90
2018-09-17T18:49:20.942Z,99.90
2018-09-17T18:51:49.673Z,99.90
2018-09-17T18:54:18.292Z,99.90
2018-09-17T18:56:46.970Z,99.90
2018-09-17T18:59:15.595Z,99.90
2018-09-17T19:01:44.308Z,99.90
2018-09-17T19:04:12.957Z,99.90
2018-09-17T19:06:41.640Z,99.90
2018-09-17T19:09:10.278Z,99.90
2018-09-17T19:11:38.851Z,99.90
2018-09-17T19:14:12.872Z,99.90
2018-09-17T19:16:49.799Z,99.90
2018-09-17T19:19:18.699Z,99.90
2018-09-17T19:21:52.601Z,99.90
2018-09-17T19:24:21.154Z,99.90
2018-09-17T19:26:50.001Z,99.90
2018-09-17T19:29:20.399Z,99.90
2018-09-17T19:31:49.276Z,99.90
2018-09-17T19:34:17.897Z,99.90
2018-09-17T19:36:47.086Z,99.90
2018-09-17T19:39:20.956Z,99.90
2018-09-17T19:41:49.568Z,99.90
2018-09-17T19:44:19.201Z,99.90
2018-09-17T19:46:47.858Z,99.90
2018-09-17T19:49:17.365Z,99.90
2018-09-17T19:51:51.084Z,99.90
2018-09-17T19:54:19.930Z,99.90
2018-09-17T19:56:48.555Z,99.90
2018-09-17T19:59:22.571Z,99.90
2018-09-17T20:01:51.804Z,99.90
2018-09-17T20:04:25.705Z,99.90
2018-09-17T20:06:54.194Z,99.90
2018-09-17T20:09:22.789Z,99.90
2018-09-17T20:11:51.397Z,99.90
2018-09-17T20:14:19.909Z,99.90
2018-09-17T20:16:51.483Z,99.90
2018-09-17T20:19:20.077Z,99.90
2018-09-17T20:21:48.706Z,99.90
2018-09-17T20:24:17.206Z,99.90
2018-09-17T20:26:45.754Z,99.90
2018-09-17T20:29:14.352Z,99.90
2018-09-17T20:31:43.046Z,99.90
2018-09-17T20:34:11.613Z,99.90
2018-09-17T20:36:41.625Z,99.90
2018-09-17T20:39:10.490Z,99.90
2018-09-17T20:41:39.243Z,99.90
2018-09-17T20:44:09.041Z,99.90
2018-09-17T20:46:38.680Z,99.90
2018-09-17T20:49:07.296Z,99.90
2018-09-17T20:51:35.840Z,99.90
2018-09-17T20:54:04.326Z,99.90
2018-09-17T20:56:33.149Z,99.90
2018-09-17T20:59:01.649Z,99.90
2018-09-17T21:01:30.249Z,99.90
2018-09-17T21:03:59.419Z,99.90
2018-09-17T21:06:27.879Z,99.90
2018-09-17T21:08:57.579Z,99.90
2018-09-17T21:11:26.149Z,99.90
2018-09-17T21:13:54.750Z,99.90
2018-09-17T21:16:23.311Z,99.90
2018-09-17T21:18:51.888Z,99.90
2018-09-17T21:21:20.444Z,99.90
2018-09-17T21:23:49.178Z,99.90
2018-09-17T21:26:17.666Z,99.90
2018-09-17T21:28:46.243Z,99.90
2018-09-17T21:31:14.904Z,99.90
2018-09-17T21:33:43.413Z,99.90
2018-09-17T21:36:12.094Z,99.90
2018-09-17T21:38:40.632Z,99.90
2018-09-17T21:41:09.221Z,99.90
2018-09-17T21:43:37.711Z,99.90
2018-09-17T21:46:06.501Z,99.90
2018-09-17T21:48:34.982Z,99.90
2018-09-17T21:51:03.644Z,99.90
2018-09-17T21:53:32.090Z,99.90
2018-09-17T21:56:00.633Z,99.90
2018-09-17T21:58:29.205Z,99.90
2018-09-17T22:01:01.769Z,99.90
2018-09-17T22:03:31.708Z,99.90
2018-09-17T22:06:00.376Z,99.90
2018-09-17T22:08:29.476Z,99.90
2018-09-17T22:10:58.060Z,99.90
2018-09-17T22:13:26.844Z,99.90
2018-09-17T22:15:55.481Z,99.90
2018-09-17T22:18:24.273Z,99.90
2018-09-17T22:20:52.794Z,99.90
2018-09-17T22:23:21.259Z,99.90
2018-09-17T22:25:49.676Z,99.90
2018-09-17T22:28:18.157Z,99.90
2018-09-17T22:30:46.622Z,99.90
2018-09-17T22:33:15.153Z,99.90
2018-09-17T22:35:43.724Z,99.90
2018-09-17T22:38:12.185Z,99.90
2018-09-17T22:43:19.106Z,99.90
2018-09-17T22:45:47.848Z,99.90
2018-09-17T22:48:16.384Z,99.90
2018-09-17T22:50:44.864Z,99.90
2018-09-17T22:53:13.329Z,99.90
2018-09-17T22:55:41.782Z,99.90
2018-09-17T22:58:10.262Z,99.90
2018-09-17T23:00:38.754Z,99.90
2018-09-17T23:03:07.360Z,99.90
2018-09-17T23:05:35.882Z,99.90
2018-09-17T23:08:04.723Z,99.90
2018-09-17T23:10:33.272Z,99.90
2018-09-17T23:13:01.799Z,99.90
2018-09-17T23:15:30.310Z,99.90
2018-09-17T23:17:58.774Z,99.90
2018-09-17T23:20:27.301Z,99.90
2018-09-17T23:22:55.771Z,99.90
2018-09-17T23:25:24.240Z,99.90
2018-09-17T23:27:52.736Z,99.90
2018-09-17T23:30:21.179Z,99.90
2018-09-17T23:32:49.683Z,99.90
2018-09-17T23:35:18.175Z,99.90
2018-09-17T23:37:46.630Z,99.90
2018-09-17T23:40:15.167Z,99.90
2018-09-17T23:42:43.658Z,99.90
2018-09-17T23:45:12.279Z,99.90
2018-09-17T23:47:40.846Z,99.90
2018-09-17T23:50:09.618Z,99.90
2018-09-17T23:52:38.182Z,99.90
2018-09-17T23:55:06.727Z,99.90
2018-09-17T23:57:35.160Z,99.90
